PWSweather.com
Personal Weather Stations
Station Observations
FEDE1991
Gimnasia, ChivilcoyAR

GimnasiaChivilcoyAR

Lat: -34.8841772, Lon: -60.0315799

Elevation: 36

Station Type: WH1081

http://climachivilcoy.blogspot.com.ar/

Latest ConditionsUpdated 12:40:51 PM GMT-03:57 Tuesday, Jan 16, 2018
Currently Today's Max Today's Min Today's Average
Temperature 81.9°F27.7°C 81.9°F27.7°C 63.1°F17.3°C 69.9°F21.1°C
Dew Point 58.5°F14.7°C 66.7°F19.3°C 57.4°F14.1°C 63.0°F17.2°C
Winds 2.2 mph 3.5 kmh 9.2 mph NE14.8 kmh NE - 3.4 mph 5.5 kmh
Wind Gusts 8.3 mph13.4 kmh 15.9 mph25.6 kmh - -
Humidity 45% 99% 45% 81%
Pressure 29.91 in1012.9 mb 29.96 in1014.6 mb 29.88 in1011.9 mb -
Hour Temp Dew Point Humidity Winds Wind Gusts Pressure Precip Precip Rate Daily Precip Total
12:40 PM 81.9°F27.7°C 58.5°F14.7°C 45% 2.2 mph 3.5 kmh 8.3 mph13.4 kmh 29.91 in1012.9 mb 0.00 in0.0 mm 0.00 in0.0 mm 0.00 in0.0 mm
12:30 PM 81.7°F27.6°C 58.8°F14.9°C 46% 4.5 mph WNW7.2 kmh WNW 7.6 mph12.2 kmh 29.91 in1012.9 mb 0.00 in0.0 mm 0.00 in0.0 mm 0.00 in0.0 mm
12:20 PM 81.5°F27.5°C 58.6°F14.8°C 46% 3.1 mph NW5.0 kmh NW 9.2 mph14.8 kmh 29.92 in1013.2 mb 0.00 in0.0 mm 0.00 in0.0 mm 0.00 in0.0 mm
12:10 PM 80.8°F27.1°C 59.2°F15.1°C 48% 2.2 mph W3.5 kmh W 7.6 mph12.2 kmh 29.92 in1013.2 mb 0.00 in0.0 mm 0.00 in0.0 mm 0.00 in0.0 mm
12:00 PM 81.3°F27.4°C 58.6°F14.8°C 46% 5.4 mph NW8.7 kmh NW 9.2 mph14.8 kmh 29.93 in1013.5 mb 0.00 in0.0 mm 0.00 in0.0 mm 0.00 in0.0 mm
11:50 AM 80.8°F27.1°C 60.4°F15.8°C 50% 1.6 mph S2.6 kmh S 4.5 mph7.2 kmh 29.93 in1013.5 mb 0.00 in0.0 mm 0.00 in0.0 mm 0.00 in0.0 mm
11:40 AM 81.1°F27.3°C 59.5°F15.3°C 48% 1.6 mph SE2.6 kmh SE 7.6 mph12.2 kmh 29.94 in1013.9 mb 0.00 in0.0 mm 0.00 in0.0 mm 0.00 in0.0 mm
11:30 AM 81.1°F27.3°C 58.5°F14.7°C 46% 2.2 mph NW3.5 kmh NW 6.9 mph11.1 kmh 29.94 in1013.9 mb 0.00 in0.0 mm 0.00 in0.0 mm 0.00 in0.0 mm
11:20 AM 80.6°F27.0°C 60.8°F16.0°C 51% 0.7 mph NW1.1 kmh NW 5.4 mph8.7 kmh 29.94 in1013.9 mb 0.00 in0.0 mm 0.00 in0.0 mm 0.00 in0.0 mm
11:09 AM 80.2°F26.8°C 60.4°F15.8°C 51% 3.1 mph 5.0 kmh 9.2 mph14.8 kmh 29.95 in1014.2 mb 0.00 in0.0 mm 0.00 in0.0 mm 0.00 in0.0 mm
10:59 AM 80.2°F26.8°C 62.1°F16.7°C 54% 3.1 mph SE5.0 kmh SE 10.7 mph17.2 kmh 29.95 in1014.2 mb 0.00 in0.0 mm 0.00 in0.0 mm 0.00 in0.0 mm
10:49 AM 79.9°F26.6°C 61.7°F16.5°C 54% 5.4 mph NNE8.7 kmh NNE 9.8 mph15.8 kmh 29.95 in1014.2 mb 0.00 in0.0 mm 0.00 in0.0 mm 0.00 in0.0 mm
10:39 AM 78.8°F26.0°C 63.3°F17.4°C 59% 3.8 mph 6.1 kmh 9.2 mph14.8 kmh 29.96 in1014.6 mb 0.00 in0.0 mm 0.00 in0.0 mm 0.00 in0.0 mm
10:29 AM 78.1°F25.6°C 63.5°F17.5°C 61% 3.1 mph 5.0 kmh 9.8 mph15.8 kmh 29.96 in1014.6 mb 0.00 in0.0 mm 0.00 in0.0 mm 0.00 in0.0 mm
10:19 AM 77.0°F25.0°C 64.8°F18.2°C 66% 1.6 mph E2.6 kmh E 8.3 mph13.4 kmh 29.95 in1014.2 mb 0.00 in0.0 mm 0.00 in0.0 mm 0.00 in0.0 mm
10:09 AM 76.3°F24.6°C 64.9°F18.3°C 68% 3.8 mph 6.1 kmh 10.7 mph17.2 kmh 29.95 in1014.2 mb 0.00 in0.0 mm 0.00 in0.0 mm 0.00 in0.0 mm
09:59 AM 75.2°F24.0°C 64.8°F18.2°C 70% 4.5 mph NE7.2 kmh NE 11.4 mph18.3 kmh 29.96 in1014.6 mb 0.00 in0.0 mm 0.00 in0.0 mm 0.00 in0.0 mm
09:49 AM 74.5°F23.6°C 65.7°F18.7°C 74% 9.2 mph NE14.8 kmh NE 11.4 mph18.3 kmh 29.96 in1014.6 mb 0.00 in0.0 mm 0.00 in0.0 mm 0.00 in0.0 mm
09:39 AM 74.1°F23.4°C 65.7°F18.7°C 75% 6.0 mph 9.7 kmh 11.4 mph18.3 kmh 29.96 in1014.6 mb 0.00 in0.0 mm 0.00 in0.0 mm 0.00 in0.0 mm
09:28 AM 73.9°F23.3°C 66.2°F19.0°C 77% 6.0 mph NE9.7 kmh NE 10.7 mph17.2 kmh 29.96 in1014.6 mb 0.00 in0.0 mm 0.00 in0.0 mm 0.00 in0.0 mm
09:18 AM 73.8°F23.2°C 66.4°F19.1°C 78% 4.5 mph NE7.2 kmh NE 7.6 mph12.2 kmh 29.95 in1014.2 mb 0.00 in0.0 mm 0.00 in0.0 mm 0.00 in0.0 mm
09:08 AM 73.0°F22.8°C 66.2°F19.0°C 79% 5.4 mph NE8.7 kmh NE 9.2 mph14.8 kmh 29.95 in1014.2 mb 0.00 in0.0 mm 0.00 in0.0 mm 0.00 in0.0 mm
08:58 AM 73.2°F22.9°C 66.7°F19.3°C 80% 3.8 mph NE6.1 kmh NE 9.2 mph14.8 kmh 29.96 in1014.6 mb 0.00 in0.0 mm 0.00 in0.0 mm 0.00 in0.0 mm
08:48 AM 72.3°F22.4°C 66.6°F19.2°C 82% 3.8 mph NE6.1 kmh NE 7.6 mph12.2 kmh 29.96 in1014.6 mb 0.00 in0.0 mm 0.00 in0.0 mm 0.00 in0.0 mm
08:38 AM 71.8°F22.1°C 66.4°F19.1°C 83% 3.8 mph NE6.1 kmh NE 8.3 mph13.4 kmh 29.96 in1014.6 mb 0.00 in0.0 mm 0.00 in0.0 mm 0.00 in0.0 mm
08:28 AM 71.1°F21.7°C 66.0°F18.9°C 84% 4.5 mph 7.2 kmh 11.4 mph18.3 kmh 29.95 in1014.2 mb 0.00 in0.0 mm 0.00 in0.0 mm 0.00 in0.0 mm
08:18 AM 70.5°F21.4°C 66.2°F19.0°C 86% 4.5 mph 7.2 kmh 9.8 mph15.8 kmh 29.95 in1014.2 mb 0.00 in0.0 mm 0.00 in0.0 mm 0.00 in0.0 mm
08:08 AM 69.6°F20.9°C 66.2°F19.0°C 89% 3.1 mph NE5.0 kmh NE 13.6 mph21.9 kmh 29.95 in1014.2 mb 0.00 in0.0 mm 0.00 in0.0 mm 0.00 in0.0 mm
07:57 AM 68.9°F20.5°C 66.6°F19.2°C 92% 9.2 mph NE14.8 kmh NE 13.6 mph21.9 kmh 29.94 in1013.9 mb 0.00 in0.0 mm 0.00 in0.0 mm 0.00 in0.0 mm
07:47 AM 68.0°F20.0°C 66.7°F19.3°C 96% 5.4 mph NE8.7 kmh NE 15.9 mph25.6 kmh 29.93 in1013.5 mb 0.00 in0.0 mm 0.00 in0.0 mm 0.00 in0.0 mm
07:37 AM 67.1°F19.5°C 66.7°F19.3°C 99% 8.3 mph NE13.4 kmh NE 13.6 mph21.9 kmh 29.93 in1013.5 mb 0.00 in0.0 mm 0.00 in0.0 mm 0.00 in0.0 mm
07:27 AM 66.4°F19.1°C 66.0°F18.9°C 99% 6.9 mph NE11.1 kmh NE 12.1 mph19.5 kmh 29.93 in1013.5 mb 0.00 in0.0 mm 0.00 in0.0 mm 0.00 in0.0 mm
07:17 AM 65.7°F18.7°C 65.3°F18.5°C 99% 6.9 mph NE11.1 kmh NE 12.1 mph19.5 kmh 29.92 in1013.2 mb 0.00 in0.0 mm 0.00 in0.0 mm 0.00 in0.0 mm
07:07 AM 64.8°F18.2°C 64.4°F18.0°C 99% 4.5 mph NE7.2 kmh NE 8.3 mph13.4 kmh 29.92 in1013.2 mb 0.00 in0.0 mm 0.00 in0.0 mm 0.00 in0.0 mm
06:57 AM 64.6°F18.1°C 64.2°F17.9°C 99% 4.5 mph NE7.2 kmh NE 10.7 mph17.2 kmh 29.92 in1013.2 mb 0.00 in0.0 mm 0.00 in0.0 mm 0.00 in0.0 mm
06:47 AM 64.0°F17.8°C 63.7°F17.6°C 99% 5.4 mph NE8.7 kmh NE 8.3 mph13.4 kmh 29.91 in1012.9 mb 0.00 in0.0 mm 0.00 in0.0 mm 0.00 in0.0 mm
06:37 AM 63.5°F17.5°C 63.1°F17.3°C 99% 3.8 mph NE6.1 kmh NE 6.9 mph11.1 kmh 29.91 in1012.9 mb 0.00 in0.0 mm 0.00 in0.0 mm 0.00 in0.0 mm
06:27 AM 63.5°F17.5°C 63.1°F17.3°C 99% 3.1 mph NE5.0 kmh NE 6.0 mph9.7 kmh 29.92 in1013.2 mb 0.00 in0.0 mm 0.00 in0.0 mm 0.00 in0.0 mm
06:16 AM 63.3°F17.4°C 63.0°F17.2°C 99% 3.1 mph NE5.0 kmh NE 6.9 mph11.1 kmh 29.91 in1012.9 mb 0.00 in0.0 mm 0.00 in0.0 mm 0.00 in0.0 mm
06:06 AM 63.1°F17.3°C 62.8°F17.1°C 99% 2.2 mph NE3.5 kmh NE 5.4 mph8.7 kmh 29.91 in1012.9 mb 0.00 in0.0 mm 0.00 in0.0 mm 0.00 in0.0 mm
05:56 AM 63.1°F17.3°C 62.6°F17.0°C 98% 2.2 mph NE3.5 kmh NE 5.4 mph8.7 kmh 29.90 in1012.5 mb 0.00 in0.0 mm 0.00 in0.0 mm 0.00 in0.0 mm
05:46 AM 63.1°F17.3°C 62.2°F16.8°C 97% 2.2 mph E3.5 kmh E 5.4 mph8.7 kmh 29.90 in1012.5 mb 0.00 in0.0 mm 0.00 in0.0 mm 0.00 in0.0 mm
05:36 AM 63.1°F17.3°C 62.2°F16.8°C 97% 1.6 mph E2.6 kmh E 3.8 mph6.1 kmh 29.89 in1012.2 mb 0.00 in0.0 mm 0.00 in0.0 mm 0.00 in0.0 mm
05:26 AM 63.5°F17.5°C 62.4°F16.9°C 96% 2.2 mph E3.5 kmh E 3.8 mph6.1 kmh 29.90 in1012.5 mb 0.00 in0.0 mm 0.00 in0.0 mm 0.00 in0.0 mm
05:16 AM 63.5°F17.5°C 62.4°F16.9°C 96% 2.2 mph E3.5 kmh E 3.8 mph6.1 kmh 29.90 in1012.5 mb 0.00 in0.0 mm 0.00 in0.0 mm 0.00 in0.0 mm
05:06 AM 63.9°F17.7°C 62.8°F17.1°C 96% 1.6 mph E2.6 kmh E 3.8 mph6.1 kmh 29.90 in1012.5 mb 0.00 in0.0 mm 0.00 in0.0 mm 0.00 in0.0 mm
04:56 AM 64.0°F17.8°C 62.6°F17.0°C 95% 1.6 mph E2.6 kmh E 3.8 mph6.1 kmh 29.90 in1012.5 mb 0.00 in0.0 mm 0.00 in0.0 mm 0.00 in0.0 mm
04:46 AM 64.2°F17.9°C 62.8°F17.1°C 95% 0.7 mph E1.1 kmh E 4.5 mph7.2 kmh 29.90 in1012.5 mb 0.00 in0.0 mm 0.00 in0.0 mm 0.00 in0.0 mm
04:35 AM 64.2°F17.9°C 62.8°F17.1°C 95% 3.1 mph E5.0 kmh E 6.0 mph9.7 kmh 29.88 in1011.9 mb 0.00 in0.0 mm 0.00 in0.0 mm 0.00 in0.0 mm
04:25 AM 64.6°F18.1°C 63.1°F17.3°C 95% 3.1 mph E5.0 kmh E 5.4 mph8.7 kmh 29.89 in1012.2 mb 0.00 in0.0 mm 0.00 in0.0 mm 0.00 in0.0 mm
04:15 AM 64.8°F18.2°C 63.0°F17.2°C 94% 3.1 mph E5.0 kmh E 6.0 mph9.7 kmh 29.89 in1012.2 mb 0.00 in0.0 mm 0.00 in0.0 mm 0.00 in0.0 mm
04:05 AM 64.9°F18.3°C 63.1°F17.3°C 94% 3.8 mph ENE6.1 kmh ENE 7.6 mph12.2 kmh 29.88 in1011.9 mb 0.00 in0.0 mm 0.00 in0.0 mm 0.00 in0.0 mm
03:55 AM 65.1°F18.4°C 63.0°F17.2°C 93% 3.8 mph E6.1 kmh E 6.0 mph9.7 kmh 29.89 in1012.2 mb 0.00 in0.0 mm 0.00 in0.0 mm 0.00 in0.0 mm
03:45 AM 65.3°F18.5°C 63.0°F17.2°C 92% 2.2 mph E3.5 kmh E 4.5 mph7.2 kmh 29.89 in1012.2 mb 0.00 in0.0 mm 0.00 in0.0 mm 0.00 in0.0 mm
03:35 AM 65.5°F18.6°C 63.1°F17.3°C 92% 2.2 mph E3.5 kmh E 5.4 mph8.7 kmh 29.90 in1012.5 mb 0.00 in0.0 mm 0.00 in0.0 mm 0.00 in0.0 mm
03:25 AM 65.8°F18.8°C 63.5°F17.5°C 92% 2.2 mph ENE3.5 kmh ENE 6.9 mph11.1 kmh 29.89 in1012.2 mb 0.00 in0.0 mm 0.00 in0.0 mm 0.00 in0.0 mm
03:15 AM 66.2°F19.0°C 63.5°F17.5°C 91% 3.8 mph E6.1 kmh E 6.0 mph9.7 kmh 29.89 in1012.2 mb 0.00 in0.0 mm 0.00 in0.0 mm 0.00 in0.0 mm
03:04 AM 66.4°F19.1°C 63.7°F17.6°C 91% 2.2 mph E3.5 kmh E -- 29.89 in1012.2 mb 0.00 in0.0 mm 0.00 in0.0 mm 0.00 in0.0 mm
03:02 AM 66.4°F19.1°C 63.7°F17.6°C 91% 2.2 mph E3.5 kmh E -- 29.89 in1012.2 mb 0.00 in0.0 mm 0.00 in0.0 mm 0.00 in0.0 mm
02:59 AM 66.4°F19.1°C 63.7°F17.6°C 91% 2.2 mph E3.5 kmh E 6.0 mph9.7 kmh 29.89 in1012.2 mb 0.00 in0.0 mm 0.00 in0.0 mm 0.00 in0.0 mm
02:49 AM 66.6°F19.2°C 63.5°F17.5°C 90% 2.2 mph E3.5 kmh E 6.0 mph9.7 kmh 29.89 in1012.2 mb 0.00 in0.0 mm 0.00 in0.0 mm 0.00 in0.0 mm
02:39 AM 66.7°F19.3°C 63.7°F17.6°C 90% 2.2 mph E3.5 kmh E 6.0 mph9.7 kmh 29.89 in1012.2 mb 0.00 in0.0 mm 0.00 in0.0 mm 0.00 in0.0 mm
02:29 AM 66.9°F19.4°C 63.5°F17.5°C 89% 3.8 mph E6.1 kmh E 6.0 mph9.7 kmh 29.90 in1012.5 mb 0.00 in0.0 mm 0.00 in0.0 mm 0.00 in0.0 mm
02:19 AM 66.9°F19.4°C 63.3°F17.4°C 88% 3.1 mph E5.0 kmh E 6.9 mph11.1 kmh 29.89 in1012.2 mb 0.00 in0.0 mm 0.00 in0.0 mm 0.00 in0.0 mm
02:09 AM 67.1°F19.5°C 63.1°F17.3°C 87% 4.5 mph E7.2 kmh E 8.3 mph13.4 kmh 29.90 in1012.5 mb 0.00 in0.0 mm 0.00 in0.0 mm 0.00 in0.0 mm
01:59 AM 67.1°F19.5°C 62.8°F17.1°C 86% 3.1 mph E5.0 kmh E 6.9 mph11.1 kmh 29.89 in1012.2 mb 0.00 in0.0 mm 0.00 in0.0 mm 0.00 in0.0 mm
01:49 AM 67.3°F19.6°C 62.6°F17.0°C 85% 3.8 mph E6.1 kmh E 6.0 mph9.7 kmh 29.90 in1012.5 mb 0.00 in0.0 mm 0.00 in0.0 mm 0.00 in0.0 mm
01:38 AM 67.5°F19.7°C 62.1°F16.7°C 83% 2.2 mph E3.5 kmh E 5.4 mph8.7 kmh 29.90 in1012.5 mb 0.00 in0.0 mm 0.00 in0.0 mm 0.00 in0.0 mm
01:28 AM 67.6°F19.8°C 61.5°F16.4°C 81% 0.7 mph E1.1 kmh E 3.1 mph5.0 kmh 29.89 in1012.2 mb 0.00 in0.0 mm 0.00 in0.0 mm 0.00 in0.0 mm
01:18 AM 67.8°F19.9°C 61.7°F16.5°C 81% 1.6 mph E2.6 kmh E 3.8 mph6.1 kmh 29.89 in1012.2 mb 0.00 in0.0 mm 0.00 in0.0 mm 0.00 in0.0 mm
01:08 AM 68.0°F20.0°C 61.5°F16.4°C 80% 1.6 mph E2.6 kmh E 4.5 mph7.2 kmh 29.88 in1011.9 mb 0.00 in0.0 mm 0.00 in0.0 mm 0.00 in0.0 mm
12:58 AM 68.2°F20.1°C 61.3°F16.3°C 79% 2.2 mph E3.5 kmh E 5.4 mph8.7 kmh 29.88 in1011.9 mb 0.00 in0.0 mm 0.00 in0.0 mm 0.00 in0.0 mm
12:48 AM 68.4°F20.2°C 61.2°F16.2°C 78% 2.2 mph E3.5 kmh E 5.4 mph8.7 kmh 29.88 in1011.9 mb 0.00 in0.0 mm 0.00 in0.0 mm 0.00 in0.0 mm
12:38 AM 68.7°F20.4°C 60.8°F16.0°C 76% 2.2 mph ENE3.5 kmh ENE 6.9 mph11.1 kmh 29.88 in1011.9 mb 0.00 in0.0 mm 0.00 in0.0 mm 0.00 in0.0 mm
12:28 AM 69.1°F20.6°C 60.1°F15.6°C 73% 2.2 mph E3.5 kmh E 6.9 mph11.1 kmh 29.88 in1011.9 mb 0.00 in0.0 mm 0.00 in0.0 mm 0.00 in0.0 mm
12:18 AM 69.3°F20.7°C 59.0°F15.0°C 70% 4.5 mph E7.2 kmh E 8.3 mph13.4 kmh 29.88 in1011.9 mb 0.00 in0.0 mm 0.00 in0.0 mm 0.00 in0.0 mm
12:08 AM 69.3°F20.7°C 57.4°F14.1°C 66% 4.5 mph E7.2 kmh E 8.3 mph13.4 kmh 29.88 in1011.9 mb 0.00 in0.0 mm 0.00 in0.0 mm 0.00 in0.0 mm